sensor_id;sensor_type;location;lat;lon;timestamp;temperature;humidity
64652;HTU21D;51062;45.120;37.660;2024-03-02T00:02:02;2.02;63.31
64652;HTU21D;51062;45.120;37.660;2024-03-02T00:04:27;1.97;63.34
64652;HTU21D;51062;45.120;37.660;2024-03-02T00:06:53;1.94;63.39
64652;HTU21D;51062;45.120;37.660;2024-03-02T00:09:22;1.92;63.45
64652;HTU21D;51062;45.120;37.660;2024-03-02T00:11:48;1.87;63.49
64652;HTU21D;51062;45.120;37.660;2024-03-02T00:14:14;1.84;63.56
64652;HTU21D;51062;45.120;37.660;2024-03-02T00:16:40;1.82;63.60
64652;HTU21D;51062;45.120;37.660;2024-03-02T00:19:06;1.79;63.68
64652;HTU21D;51062;45.120;37.660;2024-03-02T00:21:33;1.78;63.76
64652;HTU21D;51062;45.120;37.660;2024-03-02T00:23:59;1.76;63.77
64652;HTU21D;51062;45.120;37.660;2024-03-02T00:26:25;1.75;63.78
64652;HTU21D;51062;45.120;37.660;2024-03-02T00:28:53;1.72;63.79
64652;HTU21D;51062;45.120;37.660;2024-03-02T00:31:20;1.71;63.81
64652;HTU21D;51062;45.120;37.660;2024-03-02T00:33:46;1.72;63.80
64652;HTU21D;51062;45.120;37.660;2024-03-02T00:36:12;1.75;63.71
64652;HTU21D;51062;45.120;37.660;2024-03-02T00:41:08;1.75;63.61
64652;HTU21D;51062;45.120;37.660;2024-03-02T00:46:05;1.71;63.62
64652;HTU21D;51062;45.120;37.660;2024-03-02T00:48:32;1.71;63.64
64652;HTU21D;51062;45.120;37.660;2024-03-02T00:51:01;1.72;63.60
64652;HTU21D;51062;45.120;37.660;2024-03-02T00:53:29;1.71;63.61
64652;HTU21D;51062;45.120;37.660;2024-03-02T00:55:55;1.72;63.63
64652;HTU21D;51062;45.120;37.660;2024-03-02T00:58:21;1.71;63.64
64652;HTU21D;51062;45.120;37.660;2024-03-02T01:00:47;1.70;63.66
64652;HTU21D;51062;45.120;37.660;2024-03-02T01:03:13;1.70;63.64
64652;HTU21D;51062;45.120;37.660;2024-03-02T01:05:42;1.68;63.65
64652;HTU21D;51062;45.120;37.660;2024-03-02T01:08:08;1.66;63.63
64652;HTU21D;51062;45.120;37.660;2024-03-02T01:10:34;1.65;63.67
64652;HTU21D;51062;45.120;37.660;2024-03-02T01:13:00;1.64;63.73
64652;HTU21D;51062;45.120;37.660;2024-03-02T01:15:26;1.60;63.79
64652;HTU21D;51062;45.120;37.660;2024-03-02T01:17:52;1.60;63.90
64652;HTU21D;51062;45.120;37.660;2024-03-02T01:20:18;1.58;63.94
64652;HTU21D;51062;45.120;37.660;2024-03-02T01:22:44;1.60;63.95
64652;HTU21D;51062;45.120;37.660;2024-03-02T01:25:10;1.60;63.92
64652;HTU21D;51062;45.120;37.660;2024-03-02T01:27:36;1.58;63.90
64652;HTU21D;51062;45.120;37.660;2024-03-02T01:30:02;1.57;63.97
64652;HTU21D;51062;45.120;37.660;2024-03-02T01:32:27;1.57;63.94
64652;HTU21D;51062;45.120;37.660;2024-03-02T01:34:53;1.55;63.89
64652;HTU21D;51062;45.120;37.660;2024-03-02T01:37:19;1.51;63.89
64652;HTU21D;51062;45.120;37.660;2024-03-02T01:39:45;1.49;63.92
64652;HTU21D;51062;45.120;37.660;2024-03-02T01:42:11;1.47;63.94
64652;HTU21D;51062;45.120;37.660;2024-03-02T01:44:37;1.46;63.95
64652;HTU21D;51062;45.120;37.660;2024-03-02T01:47:03;1.45;64.04
64652;HTU21D;51062;45.120;37.660;2024-03-02T01:49:29;1.42;64.09
64652;HTU21D;51062;45.120;37.660;2024-03-02T01:51:54;1.42;64.12
64652;HTU21D;51062;45.120;37.660;2024-03-02T01:54:20;1.42;64.11
64652;HTU21D;51062;45.120;37.660;2024-03-02T01:56:46;1.42;64.10
64652;HTU21D;51062;45.120;37.660;2024-03-02T01:59:12;1.41;64.06
64652;HTU21D;51062;45.120;37.660;2024-03-02T02:01:39;1.39;64.09
64652;HTU21D;51062;45.120;37.660;2024-03-02T02:04:06;1.36;64.11
64652;HTU21D;51062;45.120;37.660;2024-03-02T02:06:32;1.34;64.11
64652;HTU21D;51062;45.120;37.660;2024-03-02T02:08:58;1.35;64.14
64652;HTU21D;51062;45.120;37.660;2024-03-02T02:11:24;1.33;64.14
64652;HTU21D;51062;45.120;37.660;2024-03-02T02:13:50;1.33;64.17
64652;HTU21D;51062;45.120;37.660;2024-03-02T02:16:17;1.32;64.17
64652;HTU21D;51062;45.120;37.660;2024-03-02T02:18:42;1.31;64.17
64652;HTU21D;51062;45.120;37.660;2024-03-02T02:21:08;1.33;64.17
64652;HTU21D;51062;45.120;37.660;2024-03-02T02:23:34;1.32;64.17
64652;HTU21D;51062;45.120;37.660;2024-03-02T02:26:00;1.32;64.20
64652;HTU21D;51062;45.120;37.660;2024-03-02T02:28:28;1.32;64.23
64652;HTU21D;51062;45.120;37.660;2024-03-02T02:30:54;1.31;64.21
64652;HTU21D;51062;45.120;37.660;2024-03-02T02:33:21;1.28;64.19
64652;HTU21D;51062;45.120;37.660;2024-03-02T02:35:47;1.25;64.18
64652;HTU21D;51062;45.120;37.660;2024-03-02T02:38:14;1.24;64.17
64652;HTU21D;51062;45.120;37.660;2024-03-02T02:40:39;1.21;64.23
64652;HTU21D;51062;45.120;37.660;2024-03-02T02:43:05;1.17;64.31
64652;HTU21D;51062;45.120;37.660;2024-03-02T02:45:32;1.16;64.39
64652;HTU21D;51062;45.120;37.660;2024-03-02T02:47:58;1.16;64.39
64652;HTU21D;51062;45.120;37.660;2024-03-02T02:50:24;1.13;64.39
64652;HTU21D;51062;45.120;37.660;2024-03-02T02:52:50;1.13;64.44
64652;HTU21D;51062;45.120;37.660;2024-03-02T02:55:16;1.12;64.49
64652;HTU21D;51062;45.120;37.660;2024-03-02T02:57:42;1.13;64.45
64652;HTU21D;51062;45.120;37.660;2024-03-02T03:00:09;1.11;64.38
64652;HTU21D;51062;45.120;37.660;2024-03-02T03:02:43;1.07;64.40
64652;HTU21D;51062;45.120;37.660;2024-03-02T03:05:10;1.06;64.43
64652;HTU21D;51062;45.120;37.660;2024-03-02T03:07:36;1.04;64.47
64652;HTU21D;51062;45.120;37.660;2024-03-02T03:10:02;1.02;64.47
64652;HTU21D;51062;45.120;37.660;2024-03-02T03:12:29;0.99;64.49
64652;HTU21D;51062;45.120;37.660;2024-03-02T03:14:55;0.96;64.54
64652;HTU21D;51062;45.120;37.660;2024-03-02T03:17:21;0.95;64.55
64652;HTU21D;51062;45.120;37.660;2024-03-02T03:19:47;0.92;64.52
64652;HTU21D;51062;45.120;37.660;2024-03-02T03:22:13;0.89;64.58
64652;HTU21D;51062;45.120;37.660;2024-03-02T03:24:39;0.86;64.66
64652;HTU21D;51062;45.120;37.660;2024-03-02T03:27:05;0.82;64.67
64652;HTU21D;51062;45.120;37.660;2024-03-02T03:29:31;0.80;64.69
64652;HTU21D;51062;45.120;37.660;2024-03-02T03:31:57;0.77;64.76
64652;HTU21D;51062;45.120;37.660;2024-03-02T03:34:23;0.76;64.79
64652;HTU21D;51062;45.120;37.660;2024-03-02T03:36:49;0.76;64.81
64652;HTU21D;51062;45.120;37.660;2024-03-02T03:39:15;0.74;64.81
64652;HTU21D;51062;45.120;37.660;2024-03-02T03:41:41;0.74;64.85
64652;HTU21D;51062;45.120;37.660;2024-03-02T03:44:07;0.75;64.85
64652;HTU21D;51062;45.120;37.660;2024-03-02T03:46:33;0.76;64.82
64652;HTU21D;51062;45.120;37.660;2024-03-02T03:48:59;0.77;64.76
64652;HTU21D;51062;45.120;37.660;2024-03-02T03:51:24;0.75;64.72
64652;HTU21D;51062;45.120;37.660;2024-03-02T03:53:50;0.74;64.72
64652;HTU21D;51062;45.120;37.660;2024-03-02T03:56:16;0.73;64.72
64652;HTU21D;51062;45.120;37.660;2024-03-02T03:58:42;0.72;64.75
64652;HTU21D;51062;45.120;37.660;2024-03-02T04:01:08;0.71;64.80
64652;HTU21D;51062;45.120;37.660;2024-03-02T04:03:34;0.69;64.82
64652;HTU21D;51062;45.120;37.660;2024-03-02T04:06:00;0.71;64.82
64652;HTU21D;51062;45.120;37.660;2024-03-02T04:08:26;0.68;64.82
64652;HTU21D;51062;45.120;37.660;2024-03-02T04:10:52;0.68;64.82
64652;HTU21D;51062;45.120;37.660;2024-03-02T04:13:18;0.65;64.90
64652;HTU21D;51062;45.120;37.660;2024-03-02T04:15:44;0.65;64.98
64652;HTU21D;51062;45.120;37.660;2024-03-02T04:18:10;0.65;65.06
64652;HTU21D;51062;45.120;37.660;2024-03-02T04:20:37;0.66;65.11
64652;HTU21D;51062;45.120;37.660;2024-03-02T04:23:03;0.72;65.15
64652;HTU21D;51062;45.120;37.660;2024-03-02T04:25:29;0.76;65.12
64652;HTU21D;51062;45.120;37.660;2024-03-02T04:27:54;0.80;65.11
64652;HTU21D;51062;45.120;37.660;2024-03-02T04:30:20;0.82;65.17
64652;HTU21D;51062;45.120;37.660;2024-03-02T04:32:46;0.86;65.22
64652;HTU21D;51062;45.120;37.660;2024-03-02T04:35:13;0.95;65.31
64652;HTU21D;51062;45.120;37.660;2024-03-02T04:37:39;1.05;65.29
64652;HTU21D;51062;45.120;37.660;2024-03-02T04:40:05;1.18;65.24
64652;HTU21D;51062;45.120;37.660;2024-03-02T04:42:34;1.31;65.21
64652;HTU21D;51062;45.120;37.660;2024-03-02T04:45:00;1.43;65.12
64652;HTU21D;51062;45.120;37.660;2024-03-02T04:47:26;1.56;65.11
64652;HTU21D;51062;45.120;37.660;2024-03-02T04:49:52;1.73;65.01
64652;HTU21D;51062;45.120;37.660;2024-03-02T04:52:18;1.93;64.83
64652;HTU21D;51062;45.120;37.660;2024-03-02T04:54:44;2.11;64.65
64652;HTU21D;51062;45.120;37.660;2024-03-02T04:57:28;2.32;64.44
64652;HTU21D;51062;45.120;37.660;2024-03-02T04:59:54;2.51;64.49
64652;HTU21D;51062;45.120;37.660;2024-03-02T05:02:20;2.68;64.35
64652;HTU21D;51062;45.120;37.660;2024-03-02T05:04:46;2.82;64.38
64652;HTU21D;51062;45.120;37.660;2024-03-02T05:07:14;3.09;64.36
64652;HTU21D;51062;45.120;37.660;2024-03-02T05:09:40;3.28;63.94
64652;HTU21D;51062;45.120;37.660;2024-03-02T05:12:06;3.40;63.81
64652;HTU21D;51062;45.120;37.660;2024-03-02T05:14:55;3.54;63.74
64652;HTU21D;51062;45.120;37.660;2024-03-02T05:17:21;3.59;63.61
64652;HTU21D;51062;45.120;37.660;2024-03-02T05:19:47;3.64;63.73
64652;HTU21D;51062;45.120;37.660;2024-03-02T05:22:13;3.77;63.59
64652;HTU21D;51062;45.120;37.660;2024-03-02T05:24:39;3.85;63.61
64652;HTU21D;51062;45.120;37.660;2024-03-02T05:27:05;3.98;63.60
64652;HTU21D;51062;45.120;37.660;2024-03-02T05:29:33;4.07;63.31
64652;HTU21D;51062;45.120;37.660;2024-03-02T05:31:59;4.07;63.36
64652;HTU21D;51062;45.120;37.660;2024-03-02T05:34:24;4.15;63.57
64652;HTU21D;51062;45.120;37.660;2024-03-02T05:36:50;4.30;63.58
64652;HTU21D;51062;45.120;37.660;2024-03-02T05:39:16;4.50;63.67
64652;HTU21D;51062;45.120;37.660;2024-03-02T05:41:42;4.64;63.31
64652;HTU21D;51062;45.120;37.660;2024-03-02T05:44:08;4.72;63.18
64652;HTU21D;51062;45.120;37.660;2024-03-02T05:46:34;4.63;62.96
64652;HTU21D;51062;45.120;37.660;2024-03-02T05:49:00;4.52;63.11
64652;HTU21D;51062;45.120;37.660;2024-03-02T05:51:26;4.47;63.40
64652;HTU21D;51062;45.120;37.660;2024-03-02T05:53:52;4.49;63.38
64652;HTU21D;51062;45.120;37.660;2024-03-02T05:56:18;4.45;63.40
64652;HTU21D;51062;45.120;37.660;2024-03-02T05:58:44;4.49;63.60
64652;HTU21D;51062;45.120;37.660;2024-03-02T06:01:33;4.64;63.57
64652;HTU21D;51062;45.120;37.660;2024-03-02T06:03:59;4.89;63.33
64652;HTU21D;51062;45.120;37.660;2024-03-02T06:06:25;4.98;62.95
64652;HTU21D;51062;45.120;37.660;2024-03-02T06:08:52;4.96;62.93
64652;HTU21D;51062;45.120;37.660;2024-03-02T06:11:21;5.01;63.08
64652;HTU21D;51062;45.120;37.660;2024-03-02T06:13:46;5.13;62.78
64652;HTU21D;51062;45.120;37.660;2024-03-02T06:16:13;5.18;62.56
64652;HTU21D;51062;45.120;37.660;2024-03-02T06:18:39;5.19;62.53
64652;HTU21D;51062;45.120;37.660;2024-03-02T06:21:05;5.21;62.44
64652;HTU21D;51062;45.120;37.660;2024-03-02T06:23:31;5.13;62.35
64652;HTU21D;51062;45.120;37.660;2024-03-02T06:25:57;4.98;62.48
64652;HTU21D;51062;45.120;37.660;2024-03-02T06:28:23;4.86;62.82
64652;HTU21D;51062;45.120;37.660;2024-03-02T06:30:49;4.77;63.05
64652;HTU21D;51062;45.120;37.660;2024-03-02T06:33:15;4.72;63.21
64652;HTU21D;51062;45.120;37.660;2024-03-02T06:35:41;4.78;63.30
64652;HTU21D;51062;45.120;37.660;2024-03-02T06:38:07;4.83;63.24
64652;HTU21D;51062;45.120;37.660;2024-03-02T06:40:35;4.87;63.19
64652;HTU21D;51062;45.120;37.660;2024-03-02T06:43:03;4.90;63.24
64652;HTU21D;51062;45.120;37.660;2024-03-02T06:45:29;5.00;63.42
64652;HTU21D;51062;45.120;37.660;2024-03-02T06:47:56;5.11;63.32
64652;HTU21D;51062;45.120;37.660;2024-03-02T06:50:22;5.21;62.98
64652;HTU21D;51062;45.120;37.660;2024-03-02T06:52:47;5.25;62.95
64652;HTU21D;51062;45.120;37.660;2024-03-02T06:55:13;5.30;62.94
64652;HTU21D;51062;45.120;37.660;2024-03-02T06:57:39;5.28;63.04
64652;HTU21D;51062;45.120;37.660;2024-03-02T07:00:05;5.41;63.14
64652;HTU21D;51062;45.120;37.660;2024-03-02T07:02:34;5.57;62.86
64652;HTU21D;51062;45.120;37.660;2024-03-02T07:05:02;5.71;62.60
64652;HTU21D;51062;45.120;37.660;2024-03-02T07:07:28;5.86;62.50
64652;HTU21D;51062;45.120;37.660;2024-03-02T07:09:54;5.96;62.44
64652;HTU21D;51062;45.120;37.660;2024-03-02T07:12:20;6.16;62.18
64652;HTU21D;51062;45.120;37.660;2024-03-02T07:14:46;6.28;61.96
64652;HTU21D;51062;45.120;37.660;2024-03-02T07:17:21;6.29;61.96
64652;HTU21D;51062;45.120;37.660;2024-03-02T07:19:47;6.31;62.02
64652;HTU21D;51062;45.120;37.660;2024-03-02T07:22:13;6.22;61.96
64652;HTU21D;51062;45.120;37.660;2024-03-02T07:24:42;6.06;62.29
64652;HTU21D;51062;45.120;37.660;2024-03-02T07:27:11;5.95;62.54
64652;HTU21D;51062;45.120;37.660;2024-03-02T07:29:38;5.83;62.62
64652;HTU21D;51062;45.120;37.660;2024-03-02T07:32:04;5.76;63.02
64652;HTU21D;51062;45.120;37.660;2024-03-02T07:34:30;5.83;63.26
64652;HTU21D;51062;45.120;37.660;2024-03-02T07:36:56;5.93;63.08
64652;HTU21D;51062;45.120;37.660;2024-03-02T07:39:22;5.86;62.93
64652;HTU21D;51062;45.120;37.660;2024-03-02T07:41:49;5.85;63.15
64652;HTU21D;51062;45.120;37.660;2024-03-02T07:44:15;5.86;63.21
64652;HTU21D;51062;45.120;37.660;2024-03-02T07:46:42;5.93;63.37
64652;HTU21D;51062;45.120;37.660;2024-03-02T07:49:08;6.08;63.30
64652;HTU21D;51062;45.120;37.660;2024-03-02T07:51:34;6.29;62.94
64652;HTU21D;51062;45.120;37.660;2024-03-02T07:54:00;6.49;62.70
64652;HTU21D;51062;45.120;37.660;2024-03-02T07:56:26;6.60;62.38
64652;HTU21D;51062;45.120;37.660;2024-03-02T07:58:52;6.63;62.28
64652;HTU21D;51062;45.120;37.660;2024-03-02T08:01:18;6.65;62.39
64652;HTU21D;51062;45.120;37.660;2024-03-02T08:03:44;6.72;62.38
64652;HTU21D;51062;45.120;37.660;2024-03-02T08:06:16;6.76;62.40
64652;HTU21D;51062;45.120;37.660;2024-03-02T08:08:42;6.85;62.31
64652;HTU21D;51062;45.120;37.660;2024-03-02T08:11:07;6.87;62.41
64652;HTU21D;51062;45.120;37.660;2024-03-02T08:13:33;7.05;62.36
64652;HTU21D;51062;45.120;37.660;2024-03-02T08:15:59;7.15;62.17
64652;HTU21D;51062;45.120;37.660;2024-03-02T08:18:25;7.17;62.18
64652;HTU21D;51062;45.120;37.660;2024-03-02T08:20:51;7.28;62.15
64652;HTU21D;51062;45.120;37.660;2024-03-02T08:23:17;7.45;61.88
64652;HTU21D;51062;45.120;37.660;2024-03-02T08:25:43;7.58;61.86
64652;HTU21D;51062;45.120;37.660;2024-03-02T08:28:09;7.76;61.64
64652;HTU21D;51062;45.120;37.660;2024-03-02T08:30:35;7.87;61.43
64652;HTU21D;51062;45.120;37.660;2024-03-02T08:33:01;7.90;61.41
64652;HTU21D;51062;45.120;37.660;2024-03-02T08:35:27;7.92;61.63
64652;HTU21D;51062;45.120;37.660;2024-03-02T08:37:53;8.00;61.79
64652;HTU21D;51062;45.120;37.660;2024-03-02T08:40:19;8.04;61.87
64652;HTU21D;51062;45.120;37.660;2024-03-02T08:42:45;8.09;62.04
64652;HTU21D;51062;45.120;37.660;2024-03-02T08:45:11;8.21;62.22
64652;HTU21D;51062;45.120;37.660;2024-03-02T08:47:38;8.37;62.32
64652;HTU21D;51062;45.120;37.660;2024-03-02T08:50:04;8.53;62.14
64652;HTU21D;51062;45.120;37.660;2024-03-02T08:52:30;8.63;62.01
64652;HTU21D;51062;45.120;37.660;2024-03-02T08:54:56;8.71;61.97
64652;HTU21D;51062;45.120;37.660;2024-03-02T08:57:22;8.80;62.17
64652;HTU21D;51062;45.120;37.660;2024-03-02T08:59:48;8.92;62.15
64652;HTU21D;51062;45.120;37.660;2024-03-02T09:02:14;8.97;61.82
64652;HTU21D;51062;45.120;37.660;2024-03-02T09:04:40;9.02;61.87
64652;HTU21D;51062;45.120;37.660;2024-03-02T09:07:06;9.05;61.78
64652;HTU21D;51062;45.120;37.660;2024-03-02T09:09:33;9.08;61.89
64652;HTU21D;51062;45.120;37.660;2024-03-02T09:11:59;9.15;62.03
64652;HTU21D;51062;45.120;37.660;2024-03-02T09:14:25;9.25;61.76
64652;HTU21D;51062;45.120;37.660;2024-03-02T09:16:52;9.27;61.63
64652;HTU21D;51062;45.120;37.660;2024-03-02T09:19:18;9.24;61.60
64652;HTU21D;51062;45.120;37.660;2024-03-02T09:21:44;9.25;61.61
64652;HTU21D;51062;45.120;37.660;2024-03-02T09:24:10;9.24;61.64
64652;HTU21D;51062;45.120;37.660;2024-03-02T09:26:36;9.27;61.54
64652;HTU21D;51062;45.120;37.660;2024-03-02T09:29:02;9.27;61.80
64652;HTU21D;51062;45.120;37.660;2024-03-02T09:31:27;9.38;61.66
64652;HTU21D;51062;45.120;37.660;2024-03-02T09:33:53;9.40;61.42
64652;HTU21D;51062;45.120;37.660;2024-03-02T09:36:20;9.45;61.39
64652;HTU21D;51062;45.120;37.660;2024-03-02T09:38:46;9.50;61.50
64652;HTU21D;51062;45.120;37.660;2024-03-02T09:41:12;9.54;61.39
64652;HTU21D;51062;45.120;37.660;2024-03-02T09:43:38;9.54;61.26
64652;HTU21D;51062;45.120;37.660;2024-03-02T09:46:05;9.54;61.33
64652;HTU21D;51062;45.120;37.660;2024-03-02T09:48:31;9.60;61.22
64652;HTU21D;51062;45.120;37.660;2024-03-02T09:50:57;9.66;61.21
64652;HTU21D;51062;45.120;37.660;2024-03-02T09:53:24;9.71;61.02
64652;HTU21D;51062;45.120;37.660;2024-03-02T09:55:51;9.72;60.75
64652;HTU21D;51062;45.120;37.660;2024-03-02T09:58:16;9.72;60.81
64652;HTU21D;51062;45.120;37.660;2024-03-02T10:00:42;9.77;60.82
64652;HTU21D;51062;45.120;37.660;2024-03-02T10:03:11;9.81;60.83
64652;HTU21D;51062;45.120;37.660;2024-03-02T10:05:38;9.84;60.57
64652;HTU21D;51062;45.120;37.660;2024-03-02T10:08:04;9.82;60.51
64652;HTU21D;51062;45.120;37.660;2024-03-02T10:10:40;9.81;60.37
64652;HTU21D;51062;45.120;37.660;2024-03-02T10:13:07;9.79;60.21
64652;HTU21D;51062;45.120;37.660;2024-03-02T10:15:34;9.76;60.18
64652;HTU21D;51062;45.120;37.660;2024-03-02T10:18:00;9.76;60.36
64652;HTU21D;51062;45.120;37.660;2024-03-02T10:20:26;9.82;60.47
64652;HTU21D;51062;45.120;37.660;2024-03-02T10:25:44;9.86;60.21
64652;HTU21D;51062;45.120;37.660;2024-03-02T10:28:10;9.90;60.29
64652;HTU21D;51062;45.120;37.660;2024-03-02T10:30:36;9.95;60.21
64652;HTU21D;51062;45.120;37.660;2024-03-02T10:33:02;10.05;60.37
64652;HTU21D;51062;45.120;37.660;2024-03-02T10:35:28;10.13;59.96
64652;HTU21D;51062;45.120;37.660;2024-03-02T10:37:56;10.19;59.60
64652;HTU21D;51062;45.120;37.660;2024-03-02T10:40:24;10.22;59.57
64652;HTU21D;51062;45.120;37.660;2024-03-02T10:42:50;10.27;59.64
64652;HTU21D;51062;45.120;37.660;2024-03-02T10:45:17;10.34;59.35
64652;HTU21D;51062;45.120;37.660;2024-03-02T10:47:45;10.38;59.45
64652;HTU21D;51062;45.120;37.660;2024-03-02T10:50:12;10.44;59.68
64652;HTU21D;51062;45.120;37.660;2024-03-02T10:52:40;10.53;59.57
64652;HTU21D;51062;45.120;37.660;2024-03-02T10:55:06;10.60;59.41
64652;HTU21D;51062;45.120;37.660;2024-03-02T10:57:53;10.67;59.08
64652;HTU21D;51062;45.120;37.660;2024-03-02T11:00:20;10.71;59.17
64652;HTU21D;51062;45.120;37.660;2024-03-02T11:02:51;10.77;58.99
64652;HTU21D;51062;45.120;37.660;2024-03-02T11:05:26;10.82;59.04
64652;HTU21D;51062;45.120;37.660;2024-03-02T11:07:53;10.86;58.96
64652;HTU21D;51062;45.120;37.660;2024-03-02T11:10:21;10.93;58.90
64652;HTU21D;51062;45.120;37.660;2024-03-02T11:12:55;10.94;58.53
64652;HTU21D;51062;45.120;37.660;2024-03-02T11:15:22;10.96;58.42
64652;HTU21D;51062;45.120;37.660;2024-03-02T11:17:51;10.99;58.58
64652;HTU21D;51062;45.120;37.660;2024-03-02T11:20:17;11.03;58.40
64652;HTU21D;51062;45.120;37.660;2024-03-02T11:22:44;11.11;58.22
64652;HTU21D;51062;45.120;37.660;2024-03-02T11:25:26;11.18;58.42
64652;HTU21D;51062;45.120;37.660;2024-03-02T11:33:08;11.38;57.54
64652;HTU21D;51062;45.120;37.660;2024-03-02T11:35:35;11.43;57.39
64652;HTU21D;51062;45.120;37.660;2024-03-02T11:38:01;11.46;57.42
64652;HTU21D;51062;45.120;37.660;2024-03-02T11:40:29;11.49;57.26
64652;HTU21D;51062;45.120;37.660;2024-03-02T11:42:55;11.46;57.30
64652;HTU21D;51062;45.120;37.660;2024-03-02T11:45:25;11.42;56.90
64652;HTU21D;51062;45.120;37.660;2024-03-02T11:47:53;11.40;57.06
64652;HTU21D;51062;45.120;37.660;2024-03-02T11:53:14;11.44;57.21
64652;HTU21D;51062;45.120;37.660;2024-03-02T11:55:40;11.43;56.84
64652;HTU21D;51062;45.120;37.660;2024-03-02T11:58:07;11.42;56.90
64652;HTU21D;51062;45.120;37.660;2024-03-02T12:00:32;11.38;56.75
64652;HTU21D;51062;45.120;37.660;2024-03-02T12:02:59;11.36;56.78
64652;HTU21D;51062;45.120;37.660;2024-03-02T12:05:26;11.37;56.96
64652;HTU21D;51062;45.120;37.660;2024-03-02T12:07:58;11.36;56.83
64652;HTU21D;51062;45.120;37.660;2024-03-02T12:10:25;11.33;56.93
64652;HTU21D;51062;45.120;37.660;2024-03-02T12:15:23;11.32;56.87
64652;HTU21D;51062;45.120;37.660;2024-03-02T12:17:52;11.29;56.72
64652;HTU21D;51062;45.120;37.660;2024-03-02T12:20:18;11.27;56.77
64652;HTU21D;51062;45.120;37.660;2024-03-02T12:22:44;11.24;56.68
64652;HTU21D;51062;45.120;37.660;2024-03-02T12:25:10;11.19;56.69
64652;HTU21D;51062;45.120;37.660;2024-03-02T12:27:36;11.16;56.68
64652;HTU21D;51062;45.120;37.660;2024-03-02T12:30:02;11.13;56.73
64652;HTU21D;51062;45.120;37.660;2024-03-02T12:32:29;11.10;56.57
64652;HTU21D;51062;45.120;37.660;2024-03-02T12:34:55;11.05;56.58
64652;HTU21D;51062;45.120;37.660;2024-03-02T12:37:21;11.01;56.54
64652;HTU21D;51062;45.120;37.660;2024-03-02T12:39:47;10.99;56.68
64652;HTU21D;51062;45.120;37.660;2024-03-02T12:42:14;10.97;56.68
64652;HTU21D;51062;45.120;37.660;2024-03-02T12:44:43;10.96;56.81
64652;HTU21D;51062;45.120;37.660;2024-03-02T12:47:09;10.95;56.80
64652;HTU21D;51062;45.120;37.660;2024-03-02T12:49:38;10.92;56.84
64652;HTU21D;51062;45.120;37.660;2024-03-02T12:52:05;10.92;56.74
64652;HTU21D;51062;45.120;37.660;2024-03-02T12:54:31;10.88;56.61
64652;HTU21D;51062;45.120;37.660;2024-03-02T12:56:59;10.86;56.61
64652;HTU21D;51062;45.120;37.660;2024-03-02T12:59:25;10.86;56.70
64652;HTU21D;51062;45.120;37.660;2024-03-02T13:01:53;10.84;56.61
64652;HTU21D;51062;45.120;37.660;2024-03-02T13:04:26;10.83;56.71
64652;HTU21D;51062;45.120;37.660;2024-03-02T13:06:54;10.83;56.74
64652;HTU21D;51062;45.120;37.660;2024-03-02T13:09:21;10.84;56.77
64652;HTU21D;51062;45.120;37.660;2024-03-02T13:11:47;10.87;56.93
64652;HTU21D;51062;45.120;37.660;2024-03-02T13:14:14;10.89;56.92
64652;HTU21D;51062;45.120;37.660;2024-03-02T13:16:40;10.89;56.93
64652;HTU21D;51062;45.120;37.660;2024-03-02T13:19:09;10.89;56.69
64652;HTU21D;51062;45.120;37.660;2024-03-02T13:21:36;10.85;56.71
64652;HTU21D;51062;45.120;37.660;2024-03-02T13:24:02;10.80;56.75
64652;HTU21D;51062;45.120;37.660;2024-03-02T13:26:28;10.77;56.82
64652;HTU21D;51062;45.120;37.660;2024-03-02T13:28:55;10.71;56.87
64652;HTU21D;51062;45.120;37.660;2024-03-02T13:31:21;10.66;56.90
64652;HTU21D;51062;45.120;37.660;2024-03-02T13:33:47;10.60;56.97
64652;HTU21D;51062;45.120;37.660;2024-03-02T13:36:13;10.55;57.00
64652;HTU21D;51062;45.120;37.660;2024-03-02T13:38:39;10.50;57.00
64652;HTU21D;51062;45.120;37.660;2024-03-02T13:41:05;10.42;57.03
64652;HTU21D;51062;45.120;37.660;2024-03-02T13:43:31;10.35;57.08
64652;HTU21D;51062;45.120;37.660;2024-03-02T13:45:58;10.30;57.17
64652;HTU21D;51062;45.120;37.660;2024-03-02T13:48:24;10.23;57.22
64652;HTU21D;51062;45.120;37.660;2024-03-02T13:50:53;10.16;57.29
64652;HTU21D;51062;45.120;37.660;2024-03-02T13:53:19;10.11;57.25
64652;HTU21D;51062;45.120;37.660;2024-03-02T13:55:45;10.06;57.32
64652;HTU21D;51062;45.120;37.660;2024-03-02T13:58:11;10.00;57.32
64652;HTU21D;51062;45.120;37.660;2024-03-02T14:00:37;9.96;57.41
64652;HTU21D;51062;45.120;37.660;2024-03-02T14:03:06;9.91;57.48
64652;HTU21D;51062;45.120;37.660;2024-03-02T14:05:32;9.86;57.55
64652;HTU21D;51062;45.120;37.660;2024-03-02T14:07:59;9.83;57.62
64652;HTU21D;51062;45.120;37.660;2024-03-02T14:10:26;9.79;57.68
64652;HTU21D;51062;45.120;37.660;2024-03-02T14:12:52;9.75;57.74
64652;HTU21D;51062;45.120;37.660;2024-03-02T14:15:18;9.71;57.78
64652;HTU21D;51062;45.120;37.660;2024-03-02T14:17:44;9.69;57.81
64652;HTU21D;51062;45.120;37.660;2024-03-02T14:20:10;9.65;57.87
64652;HTU21D;51062;45.120;37.660;2024-03-02T14:22:37;9.61;57.93
64652;HTU21D;51062;45.120;37.660;2024-03-02T14:25:03;9.56;57.99
64652;HTU21D;51062;45.120;37.660;2024-03-02T14:27:29;9.53;58.01
64652;HTU21D;51062;45.120;37.660;2024-03-02T14:29:55;9.50;58.07
64652;HTU21D;51062;45.120;37.660;2024-03-02T14:32:21;9.48;58.10
64652;HTU21D;51062;45.120;37.660;2024-03-02T14:34:47;9.44;58.16
64652;HTU21D;51062;45.120;37.660;2024-03-02T14:37:14;0.00;58.21
64652;HTU21D;51062;45.120;37.660;2024-03-02T14:39:40;9.38;58.27
64652;HTU21D;51062;45.120;37.660;2024-03-02T14:42:06;9.35;58.31
64652;HTU21D;51062;45.120;37.660;2024-03-02T14:44:33;9.32;58.35
64652;HTU21D;51062;45.120;37.660;2024-03-02T14:47:03;9.26;58.39
64652;HTU21D;51062;45.120;37.660;2024-03-02T14:49:33;9.24;58.45
64652;HTU21D;51062;45.120;37.660;2024-03-02T14:52:01;9.21;58.51
64652;HTU21D;51062;45.120;37.660;2024-03-02T14:54:27;9.18;58.61
64652;HTU21D;51062;45.120;37.660;2024-03-02T14:56:53;9.16;58.66
64652;HTU21D;51062;45.120;37.660;2024-03-02T14:59:19;9.12;58.69
64652;HTU21D;51062;45.120;37.660;2024-03-02T15:01:45;9.06;58.74
64652;HTU21D;51062;45.120;37.660;2024-03-02T15:04:11;9.02;58.83
64652;HTU21D;51062;45.120;37.660;2024-03-02T15:06:37;8.96;58.92
64652;HTU21D;51062;45.120;37.660;2024-03-02T15:09:03;8.91;58.99
64652;HTU21D;51062;45.120;37.660;2024-03-02T15:11:30;8.86;59.06
64652;HTU21D;51062;45.120;37.660;2024-03-02T15:13:55;8.80;59.16
64652;HTU21D;51062;45.120;37.660;2024-03-02T15:16:22;8.75;59.25
64652;HTU21D;51062;45.120;37.660;2024-03-02T15:18:48;8.70;59.33
64652;HTU21D;51062;45.120;37.660;2024-03-02T15:21:13;8.65;59.40
64652;HTU21D;51062;45.120;37.660;2024-03-02T15:23:39;8.62;59.52
64652;HTU21D;51062;45.120;37.660;2024-03-02T15:26:05;8.60;59.61
64652;HTU21D;51062;45.120;37.660;2024-03-02T15:28:31;0.00;59.70